Time;durP1;ratioP1;P1;durP2;ratioP2;P2;SDS_P1;SDS_P2;PMS_P1;PMS_P2;Temp;Humidity;BMP_temperature;BMP_pressure;BME280_temperature;BME280_humidity;BME280_pressure;Samples;Min_cycle;Max_cycle;Signal;HPM_P1;HPM_P2
2022/05/23 00:01:47;;;;;;;5.22;2.38;;;9.40;99.90;;;;;;5052832;28;20451;-60
2022/05/23 00:04:13;;;;;;;4.95;2.95;;;9.30;99.90;;;;;;5058229;28;20029;-61
2022/05/23 00:06:38;;;;;;;4.25;2.92;;;9.40;99.90;;;;;;5046678;28;20091;-60
2022/05/23 00:09:04;;;;;;;5.78;2.55;;;9.30;99.90;;;;;;5030009;28;20440;-61
2022/05/23 00:11:30;;;;;;;3.63;2.55;;;9.30;99.90;;;;;;5044146;28;20029;-61
2022/05/23 00:13:55;;;;;;;6.20;2.45;;;9.30;99.90;;;;;;5042232;28;20079;-60
2022/05/23 00:16:24;;;;;;;5.00;2.42;;;9.20;99.90;;;;;;5052311;28;20041;-60
2022/05/23 00:18:50;;;;;;;4.18;2.78;;;9.20;99.90;;;;;;5037522;28;20509;-61
2022/05/23 00:21:17;;;;;;;2.85;2.30;;;9.10;99.90;;;;;;5053444;28;20111;-61
2022/05/23 00:23:43;;;;;;;6.10;2.90;;;9.10;99.90;;;;;;5036652;28;20032;-60
2022/05/23 00:26:11;;;;;;;4.68;2.88;;;9.00;99.90;;;;;;5045109;28;20049;-60
2022/05/23 00:28:38;;;;;;;4.90;2.60;;;9.00;99.90;;;;;;5037211;28;20516;-60
2022/05/23 00:31:08;;;;;;;3.38;2.60;;;9.00;99.90;;;;;;5040966;28;20257;-61
2022/05/23 00:36:18;;;;;;;3.92;2.85;;;8.90;99.90;;;;;;5054976;28;20378;-60
2022/05/23 00:38:44;;;;;;;4.00;2.38;;;8.90;99.90;;;;;;5032216;28;20488;-61
2022/05/23 00:44:23;;;;;;;3.67;2.58;;;8.70;99.90;;;;;;5007782;28;20490;-61
2022/05/23 00:46:57;;;;;;;3.80;2.40;;;8.60;99.90;;;;;;5011461;28;20037;-60
2022/05/23 00:49:28;;;;;;;2.97;2.47;;;8.60;99.90;;;;;;5052760;28;20055;-61
2022/05/23 00:51:56;;;;;;;6.55;2.67;;;8.50;99.90;;;;;;5045059;28;20032;-61
2022/05/23 00:54:24;;;;;;;4.60;2.50;;;8.50;99.90;;;;;;5035335;28;20017;-61
2022/05/23 00:56:52;;;;;;;3.35;2.63;;;8.50;99.90;;;;;;5047197;28;20596;-61
2022/05/23 00:59:25;;;;;;;5.00;2.72;;;8.40;99.90;;;;;;5049287;28;20122;-58
2022/05/23 01:01:51;;;;;;;4.28;2.28;;;8.30;99.90;;;;;;5037822;28;20036;-61
2022/05/23 01:04:17;;;;;;;3.65;2.42;;;8.30;99.90;;;;;;5053139;28;20033;-61
2022/05/23 01:06:43;;;;;;;4.72;3.22;;;8.30;99.90;;;;;;5044117;28;20114;-61
2022/05/23 01:09:10;;;;;;;4.95;2.65;;;8.20;99.90;;;;;;5064061;28;20142;-60
2022/05/23 01:11:36;;;;;;;3.08;2.25;;;8.20;99.90;;;;;;5067326;28;20539;-61
2022/05/23 01:14:01;;;;;;;5.10;2.53;;;8.10;99.90;;;;;;5049114;28;20029;-61
2022/05/23 01:16:27;;;;;;;3.92;2.38;;;8.10;99.90;;;;;;5067666;28;20104;-61
2022/05/23 01:18:53;;;;;;;5.30;2.53;;;8.00;99.90;;;;;;5047861;28;20037;-61
2022/05/23 01:21:45;;;;;;;7.20;3.15;;;8.00;99.90;;;;;;5067311;28;20095;-61
2022/05/23 01:24:18;;;;;;;6.18;2.88;;;7.90;99.90;;;;;;5035663;28;20399;-61
2022/05/23 01:26:44;;;;;;;3.20;2.85;;;7.90;99.90;;;;;;5069103;28;20047;-61
2022/05/23 01:29:14;;;;;;;3.88;2.60;;;7.90;99.90;;;;;;5051665;28;20519;-61
2022/05/23 01:31:41;;;;;;;4.35;3.00;;;8.00;99.90;;;;;;5068957;28;20025;-61
2022/05/23 01:34:06;;;;;;;6.07;3.28;;;8.10;99.90;;;;;;5050989;28;20021;-60
2022/05/23 01:36:32;;;;;;;6.25;3.15;;;8.00;99.90;;;;;;5068867;28;20419;-61
2022/05/23 01:38:57;;;;;;;4.65;3.53;;;8.00;99.90;;;;;;5050071;28;20032;-62
2022/05/23 01:41:23;;;;;;;4.70;2.88;;;8.00;99.90;;;;;;5068793;28;20024;-61
2022/05/23 01:43:48;;;;;;;3.35;2.63;;;8.00;99.90;;;;;;5048702;28;20088;-61
2022/05/23 01:46:14;;;;;;;6.03;2.90;;;8.00;99.90;;;;;;5068730;28;20553;-61
2022/05/23 01:48:39;;;;;;;3.70;2.95;;;7.90;99.90;;;;;;5047388;28;20045;-60
2022/05/23 01:51:05;;;;;;;4.78;2.42;;;7.80;99.90;;;;;;5068709;28;20021;-62
2022/05/23 01:53:30;;;;;;;4.97;3.55;;;7.80;99.90;;;;;;5049048;28;20032;-61
2022/05/23 01:55:58;;;;;;;6.00;3.50;;;7.70;99.90;;;;;;5047116;28;20021;-63
2022/05/23 02:01:13;;;;;;;5.32;3.13;;;7.50;99.90;;;;;;5022037;28;20275;-60
2022/05/23 02:03:39;;;;;;;3.72;2.90;;;7.50;99.90;;;;;;5028584;28;20322;-61
2022/05/23 02:06:04;;;;;;;5.28;2.92;;;7.40;99.90;;;;;;5028462;28;20025;-61
2022/05/23 02:08:30;;;;;;;6.28;3.28;;;7.50;99.90;;;;;;5067376;28;20037;-61
2022/05/23 02:10:55;;;;;;;4.97;2.97;;;7.40;99.90;;;;;;5047193;28;20024;-61
2022/05/23 02:13:21;;;;;;;4.25;2.58;;;7.40;99.90;;;;;;5067543;28;20109;-62
2022/05/23 02:15:46;;;;;;;7.45;3.53;;;7.40;99.90;;;;;;5047195;28;20021;-61
2022/05/23 02:18:12;;;;;;;5.30;2.85;;;7.30;99.90;;;;;;5067514;28;20039;-61
2022/05/23 02:20:37;;;;;;;4.25;3.30;;;7.30;99.90;;;;;;5047163;28;20102;-62
2022/05/23 02:23:03;;;;;;;3.10;2.80;;;7.30;99.90;;;;;;5067497;28;20024;-62
2022/05/23 02:25:29;;;;;;;3.53;2.75;;;7.40;99.90;;;;;;5057385;28;20131;-61
2022/05/23 02:27:55;;;;;;;6.55;3.25;;;7.30;99.90;;;;;;5047305;28;20044;-62
2022/05/23 02:30:21;;;;;;;7.43;3.38;;;7.20;99.90;;;;;;5051719;28;20021;-61
2022/05/23 02:32:47;;;;;;;4.95;3.30;;;7.20;99.90;;;;;;5067419;28;20021;-61
2022/05/23 02:35:17;;;;;;;7.20;3.30;;;7.20;99.90;;;;;;5046781;28;20029;-61
2022/05/23 02:37:44;;;;;;;5.70;3.53;;;7.20;99.90;;;;;;5068204;28;20496;-61
2022/05/23 02:40:10;;;;;;;5.63;3.58;;;7.10;99.90;;;;;;5046656;28;20120;-61
2022/05/23 02:42:36;;;;;;;5.97;3.38;;;7.20;99.90;;;;;;5067458;28;20079;-61
2022/05/23 02:45:06;;;;;;;4.15;3.40;;;7.20;99.90;;;;;;5046595;28;20048;-61
2022/05/23 02:47:32;;;;;;;5.28;2.78;;;7.20;99.90;;;;;;5028176;28;20116;-62
2022/05/23 02:49:59;;;;;;;5.85;3.97;;;7.10;99.90;;;;;;5064955;28;20063;-61
2022/05/23 02:52:24;;;;;;;4.47;3.30;;;7.10;99.90;;;;;;5048318;28;20381;-62
2022/05/23 02:54:50;;;;;;;5.57;2.97;;;7.20;99.90;;;;;;5065552;28;20032;-61
2022/05/23 02:57:15;;;;;;;7.93;3.88;;;7.20;99.90;;;;;;5048375;28;20032;-61
2022/05/23 02:59:41;;;;;;;5.43;3.72;;;7.20;99.90;;;;;;5057931;28;20028;-60
2022/05/23 03:04:50;;;;;;;6.00;3.50;;;7.30;99.90;;;;;;5045897;28;20067;-61
2022/05/23 03:07:16;;;;;;;4.05;2.95;;;7.30;99.90;;;;;;5048285;28;20059;-60
2022/05/23 03:09:44;;;;;;;5.22;3.30;;;7.30;99.90;;;;;;5065526;28;20496;-56
2022/05/23 03:12:10;;;;;;;4.78;3.33;;;7.30;99.90;;;;;;5051635;28;20056;-56
2022/05/23 03:14:35;;;;;;;5.65;3.47;;;7.30;99.90;;;;;;5068876;28;20056;-56
2022/05/23 03:17:03;;;;;;;4.40;3.17;;;7.30;99.90;;;;;;5051993;28;20396;-55
2022/05/23 03:19:29;;;;;;;4.60;3.67;;;7.40;99.90;;;;;;5069346;28;20090;-57
2022/05/23 03:27:36;;;;;;;5.70;3.78;;;7.50;99.90;;;;;;5046482;28;20093;-57
2022/05/23 03:30:04;;;;;;;8.85;3.72;;;7.50;99.90;;;;;;5049924;28;20037;-55
2022/05/23 03:32:30;;;;;;;6.18;4.00;;;7.60;99.90;;;;;;5070555;28;20123;-55
2022/05/23 03:34:55;;;;;;;5.38;3.97;;;7.60;99.90;;;;;;5049738;28;20035;-56
2022/05/23 03:37:21;;;;;;;8.35;3.90;;;7.70;99.90;;;;;;5069724;28;20029;-57
2022/05/23 03:39:47;;;;;;;5.78;3.60;;;7.80;99.90;;;;;;5057810;28;20459;-57
2022/05/23 03:42:13;;;;;;;5.28;3.28;;;7.80;99.90;;;;;;5051048;28;20577;-56
2022/05/23 03:44:38;;;;;;;4.95;2.97;;;7.90;99.90;;;;;;5068074;28;20036;-56
2022/05/23 03:47:04;;;;;;;5.40;3.45;;;8.00;99.90;;;;;;5051435;28;20055;-54
2022/05/23 03:49:30;;;;;;;6.63;4.10;;;8.30;99.90;;;;;;5068067;28;20043;-55
2022/05/23 03:51:56;;;;;;;4.88;3.20;;;9.60;99.90;;;;;;5070777;28;20021;-55
2022/05/23 03:54:22;;;;;;;5.78;3.35;;;10.80;99.90;;;;;;5047580;28;20044;-57
2022/05/23 03:56:47;;;;;;;6.18;3.75;;;12.00;99.90;;;;;;5070191;28;20112;-57
2022/05/23 03:59:13;;;;;;;6.60;3.88;;;12.90;99.90;;;;;;5057694;28;20282;-57
2022/05/23 04:01:38;;;;;;;4.88;3.28;;;13.90;99.90;;;;;;5043506;28;20480;-57
2022/05/23 04:04:04;;;;;;;5.43;3.17;;;14.80;99.90;;;;;;5053956;28;20041;-54
2022/05/23 04:06:29;;;;;;;3.50;2.97;;;15.70;99.90;;;;;;5069899;28;20024;-54
2022/05/23 04:08:55;;;;;;;3.25;2.78;;;16.30;94.90;;;;;;5049454;28;20488;-56
2022/05/23 04:11:21;;;;;;;4.43;2.50;;;17.10;90.20;;;;;;5069998;28;20025;-57
2022/05/23 04:13:47;;;;;;;2.97;2.40;;;18.00;84.00;;;;;;5049097;28;20065;-55
2022/05/23 04:16:13;;;;;;;3.75;2.53;;;18.70;74.60;;;;;;5070273;28;20078;-56
2022/05/23 04:18:38;;;;;;;5.63;2.60;;;19.00;70.00;;;;;;5059993;28;20504;-57
2022/05/23 04:21:04;;;;;;;3.10;2.28;;;19.60;66.80;;;;;;5050831;28;20252;-57
2022/05/23 04:23:30;;;;;;;2.63;2.03;;;20.30;58.30;;;;;;5067147;28;20024;-57
2022/05/23 04:26:01;;;;;;;2.40;2.17;;;20.90;54.70;;;;;;5050747;28;20547;-56
2022/05/23 04:28:26;;;;;;;2.78;2.40;;;21.30;50.20;;;;;;5046895;28;20040;-58
2022/05/23 04:30:52;;;;;;;6.05;2.50;;;21.90;50.10;;;;;;5050975;28;20489;-58
2022/05/23 04:36:02;;;;;;;2.25;2.05;;;23.20;37.30;;;;;;5030439;28;20028;-58
2022/05/23 04:38:27;;;;;;;3.28;2.15;;;24.00;39.10;;;;;;5062235;28;20037;-58
2022/05/23 04:40:53;;;;;;;4.60;2.53;;;24.50;34.00;;;;;;5049837;28;20025;-62
2022/05/23 04:43:18;;;;;;;3.17;2.22;;;25.00;32.10;;;;;;5069291;28;20036;-61
2022/05/23 04:45:44;;;;;;;2.10;1.90;;;25.60;27.60;;;;;;5068268;28;20023;-62
2022/05/23 04:50:54;;;;;;;5.32;2.15;;;26.10;25.90;;;;;;5030318;28;20436;-62
2022/05/23 04:53:20;;;;;;;3.38;2.42;;;26.50;19.10;;;;;;5068112;28;20037;-62
2022/05/23 04:55:45;;;;;;;4.38;2.17;;;26.40;22.50;;;;;;5046081;28;20032;-60
2022/05/23 04:58:12;;;;;;;3.25;2.10;;;26.80;24.00;;;;;;5050314;28;20086;-59
2022/05/23 05:00:42;;;;;;;3.95;2.53;;;27.10;21.80;;;;;;5060142;28;20040;-60
2022/05/23 05:03:08;;;;;;;3.13;2.00;;;27.60;20.90;;;;;;5049856;28;20017;-59
2022/05/23 05:05:34;;;;;;;3.22;2.30;;;28.30;20.10;;;;;;5066816;28;20203;-60
2022/05/23 05:08:00;;;;;;;5.20;2.28;;;29.00;18.60;;;;;;5069631;28;20254;-60
2022/05/23 05:10:27;;;;;;;4.82;2.13;;;29.20;10.90;;;;;;5054481;28;20515;-61
2022/05/23 05:12:54;;;;;;;3.38;2.08;;;29.20;15.20;;;;;;5069731;28;20464;-61
2022/05/23 05:15:21;;;;;;;3.97;2.10;;;28.40;14.70;;;;;;5053372;28;20032;-60
2022/05/23 05:17:47;;;;;;;4.05;1.88;;;29.00;12.30;;;;;;5069293;28;20025;-60
2022/05/23 05:20:14;;;;;;;1.67;1.35;;;28.80;13.50;;;;;;5052495;28;20055;-59
2022/05/23 05:22:39;;;;;;;3.53;2.00;;;29.00;13.00;;;;;;5069307;28;20106;-59
2022/05/23 05:25:08;;;;;;;5.03;2.75;;;29.40;11.40;;;;;;5051545;28;20068;-60
2022/05/23 05:27:34;;;;;;;2.33;1.80;;;29.50;9.10;;;;;;5049266;28;20052;-60
2022/05/23 05:30:00;;;;;;;2.85;2.00;;;29.40;11.80;;;;;;5066291;28;20061;-60
2022/05/23 05:32:38;;;;;;;3.40;1.65;;;29.70;11.00;;;;;;5069320;28;20777;-60
2022/05/23 05:35:14;;;;;;;3.72;2.38;;;29.50;9.10;;;;;;5034031;28;20048;-60
2022/05/23 05:37:49;;;;;;;3.28;2.10;;;29.40;9.80;;;;;;5069205;28;20024;-60
2022/05/23 05:40:18;;;;;;;2.28;1.85;;;29.50;9.10;;;;;;5036796;28;20039;-60
2022/05/23 05:42:48;;;;;;;3.00;1.88;;;30.20;7.40;;;;;;5069291;28;20028;-60
2022/05/23 05:45:22;;;;;;;2.88;1.63;;;30.60;7.30;;;;;;5051656;28;20028;-60
2022/05/23 05:47:50;;;;;;;3.53;1.92;;;31.00;8.70;;;;;;5069074;28;20416;-60
2022/05/23 05:50:24;;;;;;;2.42;1.67;;;31.30;8.10;;;;;;5052032;28;20079;-60
2022/05/23 05:52:53;;;;;;;3.30;2.10;;;31.60;7.10;;;;;;5068513;28;20024;-60
2022/05/23 05:55:19;;;;;;;3.35;2.00;;;31.80;5.40;;;;;;5028259;28;20643;-59
2022/05/23 05:57:44;;;;;;;2.47;1.60;;;31.60;7.10;;;;;;5067659;28;20034;-59
2022/05/23 06:00:10;;;;;;;2.30;1.90;;;32.00;6.50;;;;;;5052013;28;20032;-59
2022/05/23 06:02:36;;;;;;;2.53;2.03;;;31.40;4.70;;;;;;5049121;28;20017;-60
2022/05/23 06:05:03;;;;;;;3.25;1.90;;;30.70;4.10;;;;;;5048374;28;20238;-60
2022/05/23 06:13:00;;;;;;;2.23;1.80;;;31.20;7.00;;;;;;5030018;28;20041;-59
2022/05/23 06:15:26;;;;;;;2.13;1.60;;;31.50;4.30;;;;;;5068420;28;20266;-59
2022/05/23 06:17:54;;;;;;;2.33;1.73;;;31.50;5.40;;;;;;5047428;28;20112;-59
2022/05/23 06:20:23;;;;;;;3.33;1.98;;;32.20;5.60;;;;;;5068654;28;20021;-59
2022/05/23 06:22:50;;;;;;;2.15;1.85;;;32.00;4.60;;;;;;5043307;28;20028;-59
2022/05/23 06:25:16;;;;;;;2.38;1.63;;;32.30;3.90;;;;;;5050474;28;20029;-60
2022/05/23 06:27:42;;;;;;;2.05;1.63;;;32.80;3.80;;;;;;5064662;28;20043;-59
2022/05/23 06:30:10;;;;;;;3.67;1.80;;;33.30;3.60;;;;;;5047589;28;20041;-59
2022/05/23 06:32:36;;;;;;;3.70;2.08;;;31.80;2.20;;;;;;5065130;28;20756;-59
2022/05/23 06:35:02;;;;;;;4.82;1.95;;;31.80;2.80;;;;;;5047606;28;20017;-70
2022/05/23 06:37:28;;;;;;;3.28;1.75;;;31.60;4.00;;;;;;5047016;28;20029;-67
2022/05/23 06:39:53;;;;;;;1.80;1.40;;;32.50;3.80;;;;;;5064656;28;20047;-70
2022/05/23 06:42:19;;;;;;;2.00;1.67;;;33.40;1.40;;;;;;5061041;28;20033;-72
2022/05/23 06:44:44;;;;;;;3.22;1.70;;;32.40;1.90;;;;;;5045401;28;20028;-71
2022/05/23 06:47:10;;;;;;;2.60;1.70;;;32.80;2.60;;;;;;5051270;28;20021;-68
2022/05/23 06:49:35;;;;;;;2.97;1.42;;;33.30;1.10;;;;;;5051669;28;20044;-68
2022/05/23 06:52:01;;;;;;;1.63;1.40;;;33.50;1.00;;;;;;5051251;28;20021;-72
2022/05/23 06:54:26;;;;;;;1.80;1.35;;;33.20;1.00;;;;;;5070662;28;20040;-72
2022/05/23 06:56:52;;;;;;;2.53;1.55;;;31.40;1.00;;;;;;5050020;28;20107;-73
2022/05/23 06:59:19;;;;;;;2.72;1.42;;;31.40;1.10;;;;;;5069644;28;20054;-60
2022/05/23 07:02:24;;;;;;;3.47;1.40;;;31.10;1.60;;;;;;5042158;28;20078;-60
2022/05/23 07:12:37;;;;;;;1.88;1.30;;;33.80;1.00;;;;;;5042080;28;20086;-63
2022/05/23 07:16:03;;;;;;;2.47;1.33;;;34.50;1.00;;;;;;5050047;28;20536;-63
2022/05/23 07:19:28;;;;;;;1.35;1.25;;;35.10;1.00;;;;;;5059647;28;20049;-63
2022/05/23 07:22:54;;;;;;;1.92;1.20;;;34.40;1.00;;;;;;5059250;28;20039;-63
2022/05/23 07:26:19;;;;;;;2.03;1.20;;;34.40;1.00;;;;;;5055484;28;20059;-63
2022/05/23 07:29:44;;;;;;;2.03;1.20;;;33.20;1.00;;;;;;5059097;28;20044;-63
2022/05/23 07:33:10;;;;;;;3.25;1.48;;;32.80;1.00;;;;;;5059126;28;20416;-64
2022/05/23 07:36:38;;;;;;;3.25;1.15;;;32.80;1.00;;;;;;5053884;28;20044;-63
2022/05/23 07:40:03;;;;;;;2.10;1.10;;;31.30;1.00;;;;;;5059059;28;20464;-63
2022/05/23 07:43:29;;;;;;;3.97;1.42;;;31.90;1.00;;;;;;5055376;28;20147;-63
2022/05/23 07:46:55;;;;;;;2.63;1.25;;;32.50;1.00;;;;;;5064644;28;20028;-66
2022/05/23 07:50:21;;;;;;;1.58;1.10;;;32.90;1.00;;;;;;5043405;28;20107;-64
2022/05/23 08:00:33;;;;;;;1.35;0.98;;;33.50;1.00;;;;;;5043396;28;20089;-64
2022/05/23 08:03:58;;;;;;;1.77;1.20;;;34.30;1.00;;;;;;5041564;28;20039;-64
2022/05/23 08:07:28;;;;;;;1.80;1.10;;;33.90;1.00;;;;;;5060339;28;20036;-64
2022/05/23 08:10:49;;;;;;;1.90;1.02;;;33.00;1.00;;;;;;5054704;28;20053;-65
2022/05/23 08:14:17;;;;;;;1.13;0.85;;;33.40;1.00;;;;;;5045251;28;20037;-65
2022/05/23 08:17:43;;;;;;;1.85;1.13;;;34.20;1.00;;;;;;5058445;28;20036;-64
2022/05/23 08:21:08;;;;;;;3.53;1.10;;;33.20;1.00;;;;;;5064354;28;20036;-64
2022/05/23 08:24:34;;;;;;;2.70;1.30;;;32.30;1.00;;;;;;5052136;28;20076;-63
2022/05/23 08:27:59;;;;;;;3.58;1.10;;;33.10;1.00;;;;;;5063651;28;20047;-63
2022/05/23 08:31:24;;;;;;;1.85;1.13;;;33.80;1.00;;;;;;5058048;28;20570;-64
2022/05/23 08:34:50;;;;;;;1.60;0.98;;;33.30;1.00;;;;;;5044306;28;20041;-63
2022/05/23 08:38:15;;;;;;;1.05;0.77;;;32.30;1.00;;;;;;5026705;28;20044;-64
2022/05/23 08:41:16;;;;;;;1.70;1.00;;;31.10;1.00;;;;;;5046871;28;20052;-64
2022/05/23 08:44:47;;;;;;;1.50;1.08;;;30.60;1.00;;;;;;5034933;28;20040;-63
2022/05/23 08:48:31;;;;;;;1.67;0.98;;;30.70;1.00;;;;;;5050822;28;20416;-63
2022/05/23 08:51:56;;;;;;;1.75;1.10;;;30.40;1.00;;;;;;5045505;28;20140;-63
2022/05/23 08:55:17;;;;;;;2.55;0.93;;;30.10;1.00;;;;;;5041233;28;20135;-63
2022/05/23 08:58:54;;;;;;;1.45;1.08;;;31.90;1.00;;;;;;5032735;28;20045;-64
2022/05/23 09:02:32;;;;;;;1.45;1.00;;;32.20;1.00;;;;;;5035457;28;20045;-63
2022/05/23 09:05:57;;;;;;;4.55;1.30;;;31.40;1.00;;;;;;5041593;28;20128;-64
2022/05/23 09:09:23;;;;;;;3.88;0.82;;;31.50;1.00;;;;;;5031305;28;20463;-64
2022/05/23 09:12:48;;;;;;;1.50;1.02;;;32.10;1.00;;;;;;5051347;28;20047;-63
2022/05/23 09:16:14;;;;;;;1.65;0.77;;;31.10;1.00;;;;;;5027994;28;20083;-62
2022/05/23 09:19:42;;;;;;;1.05;0.93;;;29.30;1.00;;;;;;5047091;28;20048;-61
2022/05/23 09:23:14;;;;;;;1.90;1.10;;;30.60;1.00;;;;;;5031745;28;20045;-62
2022/05/23 09:26:42;;;;;;;1.85;1.10;;;31.40;1.00;;;;;;5046538;28;20053;-62
2022/05/23 09:30:08;;;;;;;2.05;1.08;;;30.70;1.00;;;;;;5039037;28;20477;-62
2022/05/23 09:33:02;;;;;;;1.52;1.13;;;30.30;1.00;;;;;;5039823;28;20042;-62
2022/05/23 09:36:27;;;;;;;4.18;1.13;;;30.30;1.00;;;;;;5036253;28;20121;-62
2022/05/23 09:39:53;;;;;;;2.05;1.10;;;29.40;1.00;;;;;;5049568;28;20039;-62
2022/05/23 09:50:26;;;;;;;1.90;0.93;;;28.60;1.00;;;;;;5030473;28;20053;-63
2022/05/23 09:54:04;;;;;;;1.40;0.93;;;28.20;1.00;;;;;;5028869;28;20037;-62
2022/05/23 09:57:09;;;;;;;;;;;27.80;1.00;;;;;;5044613;28;20048;-62
2022/05/23 10:00:23;;;;;;;1.80;1.20;;;27.40;1.00;;;;;;5048339;28;19948;-61
2022/05/23 10:03:25;;;;;;;1.58;0.88;;;26.70;1.00;;;;;;5037566;28;20528;-62
2022/05/23 10:06:51;;;;;;;1.20;1.08;;;26.00;1.30;;;;;;5038198;28;20044;-61
2022/05/23 10:10:16;;;;;;;3.42;1.00;;;25.60;2.60;;;;;;5052445;28;20049;-62
2022/05/23 10:13:11;;;;;;;1.77;0.93;;;25.00;3.30;;;;;;5035000;28;20037;-62
2022/05/23 10:16:36;;;;;;;1.27;0.80;;;24.10;3.70;;;;;;5034297;28;20091;-62
2022/05/23 10:20:04;;;;;;;2.38;0.90;;;23.60;5.00;;;;;;5025549;28;20508;-61
2022/05/23 10:23:17;;;;;;;1.55;1.00;;;23.50;4.70;;;;;;5049010;28;20520;-62
2022/05/23 10:27:00;;;;;;;2.33;1.02;;;23.40;5.50;;;;;;5054646;28;20051;-62
2022/05/23 10:30:31;;;;;;;1.58;0.95;;;22.90;6.40;;;;;;5052049;28;20049;-62
2022/05/23 10:33:56;;;;;;;2.53;0.93;;;22.70;6.40;;;;;;5039817;28;20026;-61
2022/05/23 10:37:22;;;;;;;1.30;1.02;;;23.00;6.60;;;;;;5058876;28;20084;-61
2022/05/23 10:43:17;;;;;;;2.40;1.08;;;23.00;6.30;;;;;;5054523;28;20109;-59
2022/05/23 10:45:56;;;;;;;2.25;1.20;;;22.90;7.80;;;;;;5041958;28;20029;-59
2022/05/23 10:48:54;;;;;;;1.65;1.20;;;23.00;6.80;;;;;;5035487;28;20033;-59
2022/05/23 10:51:29;;;;;;;2.20;0.90;;;23.10;6.50;;;;;;5039825;28;20029;-59
2022/05/23 10:54:07;;;;;;;1.75;1.00;;;23.10;6.10;;;;;;5037455;28;20277;-59
2022/05/23 10:56:57;;;;;;;4.03;1.17;;;23.00;6.30;;;;;;5035483;28;20033;-59
2022/05/23 10:59:32;;;;;;;2.47;1.15;;;22.90;7.10;;;;;;5037831;28;20033;-58
2022/05/23 11:02:25;;;;;;;2.78;0.98;;;23.00;6.80;;;;;;5059946;28;20112;-58
2022/05/23 11:05:02;;;;;;;1.85;0.98;;;23.20;7.10;;;;;;5036291;28;20029;-59
2022/05/23 11:07:36;;;;;;;2.05;0.80;;;23.40;7.70;;;;;;5044213;28;20037;-59
2022/05/23 11:10:20;;;;;;;2.22;1.00;;;23.40;6.30;;;;;;5036952;28;20378;-71
2022/05/23 11:12:54;;;;;;;3.10;1.30;;;23.60;6.00;;;;;;5064239;28;20396;-71
2022/05/23 11:15:40;;;;;;;1.38;0.98;;;23.50;5.90;;;;;;5039861;28;20090;-72
2022/05/23 11:18:18;;;;;;;6.82;1.13;;;23.60;5.00;;;;;;5051997;28;20025;-72
2022/05/23 11:20:43;;;;;;;4.85;1.25;;;23.10;5.90;;;;;;5037519;28;20111;-71
2022/05/23 11:23:11;;;;;;;2.67;0.93;;;23.00;5.70;;;;;;5039572;28;20462;-70
2022/05/23 11:25:41;;;;;;;2.55;0.95;;;23.10;4.80;;;;;;5053073;28;20049;-72
2022/05/23 11:34:47;;;;;;;3.88;0.85;;;23.60;4.20;;;;;;5042684;28;20040;-71
2022/05/23 11:39:49;;;;;;;3.45;1.30;;;23.70;4.70;;;;;;5036548;28;20374;-71
2022/05/23 11:42:17;;;;;;;2.22;0.90;;;23.60;4.80;;;;;;5056261;28;20062;-72
2022/05/23 11:44:42;;;;;;;0.77;0.77;;;23.70;4.60;;;;;;5067603;28;20107;-73
2022/05/23 11:47:26;;;;;;;1.80;1.17;;;23.70;4.60;;;;;;5058217;28;20127;-70
2022/05/23 11:50:18;;;;;;;1.75;1.13;;;23.70;4.50;;;;;;5038688;28;20584;-71
2022/05/23 11:52:49;;;;;;;2.55;1.10;;;23.40;4.80;;;;;;5047319;28;20028;-71
2022/05/23 11:55:52;;;;;;;2.33;0.90;;;23.60;4.90;;;;;;5034620;28;20404;-71
2022/05/23 11:58:36;;;;;;;2.78;1.00;;;23.90;5.00;;;;;;5039765;28;20451;-70
2022/05/23 12:01:20;;;;;;;1.08;0.98;;;24.20;4.70;;;;;;5031613;28;20040;-72
2022/05/23 12:03:50;;;;;;;3.15;1.10;;;23.80;4.50;;;;;;5026332;28;20056;-71
2022/05/23 12:06:22;;;;;;;3.03;0.90;;;23.80;5.40;;;;;;5061865;28;20029;-73
2022/05/23 12:09:06;;;;;;;2.67;1.00;;;23.80;4.70;;;;;;5034811;28;20529;-72
2022/05/23 12:11:35;;;;;;;2.83;0.98;;;23.80;4.40;;;;;;5048921;28;20564;-68
2022/05/23 12:14:42;;;;;;;3.05;1.08;;;23.70;4.60;;;;;;5032081;28;20123;-73
2022/05/23 12:17:16;;;;;;;1.45;1.00;;;23.70;4.10;;;;;;5046721;28;20124;-71
2022/05/23 12:19:41;;;;;;;2.28;1.00;;;23.60;4.30;;;;;;5047624;28;20041;-72
2022/05/23 12:22:36;;;;;;;1.38;1.13;;;23.30;4.90;;;;;;5051812;28;20043;-72
2022/05/23 12:25:07;;;;;;;2.25;0.85;;;23.30;5.40;;;;;;5054350;28;20094;-72
2022/05/23 12:27:37;;;;;;;1.15;0.95;;;23.40;5.30;;;;;;5053936;28;20035;-71
2022/05/23 12:30:21;;;;;;;1.15;0.82;;;23.60;4.60;;;;;;5036443;28;20044;-72
2022/05/23 12:32:47;;;;;;;2.55;1.10;;;23.50;4.60;;;;;;5051645;28;20028;-71
2022/05/23 12:35:15;;;;;;;2.08;1.10;;;23.40;4.80;;;;;;5050646;28;20110;-69
2022/05/23 12:38:05;;;;;;;2.72;0.93;;;23.20;4.20;;;;;;5063048;28;20082;-70
2022/05/23 12:40:38;;;;;;;5.13;1.30;;;23.10;3.00;;;;;;5056794;28;20032;-69
2022/05/23 12:43:13;;;;;;;1.60;1.00;;;23.00;3.10;;;;;;5038147;28;20091;-67
2022/05/23 12:45:57;;;;;;;3.05;0.90;;;23.20;2.90;;;;;;5035884;28;20218;-67
2022/05/23 12:48:50;;;;;;;1.02;0.82;;;23.10;3.10;;;;;;5038883;28;20076;-68
2022/05/23 12:51:32;;;;;;;2.38;0.98;;;23.30;3.20;;;;;;5036015;28;20037;-70
2022/05/23 12:54:19;;;;;;;1.98;0.95;;;23.40;3.20;;;;;;5030568;28;20025;-70
2022/05/23 12:57:14;;;;;;;2.17;1.15;;;23.20;4.60;;;;;;5037801;28;20033;-67
2022/05/23 13:00:06;;;;;;;2.20;1.10;;;23.30;4.50;;;;;;5044537;28;20491;-68
2022/05/23 13:02:45;;;;;;;1.33;1.00;;;23.20;5.20;;;;;;5053044;28;20025;-70
2022/05/23 13:05:14;;;;;;;1.67;0.77;;;22.90;4.80;;;;;;5033184;28;20033;-68
2022/05/23 13:07:56;;;;;;;3.20;1.10;;;23.00;5.10;;;;;;5057434;28;20041;-69
2022/05/23 13:10:27;;;;;;;3.15;1.35;;;23.00;5.50;;;;;;5037380;28;20139;-69
2022/05/23 13:13:18;;;;;;;2.50;1.27;;;23.00;6.10;;;;;;5047249;28;20395;-70
2022/05/23 13:15:44;;;;;;;6.22;1.42;;;23.00;5.00;;;;;;5043801;28;20045;-70
2022/05/23 13:23:45;;;;;;;2.13;1.00;;;22.90;5.70;;;;;;5030433;28;20156;-70
2022/05/23 13:26:12;;;;;;;3.35;1.27;;;23.10;6.20;;;;;;5034579;28;20049;-70
2022/05/23 13:28:43;;;;;;;1.17;0.93;;;23.10;6.00;;;;;;5029780;28;20032;-70
2022/05/23 13:31:22;;;;;;;2.05;1.00;;;23.10;6.00;;;;;;5034835;28;20045;-69
2022/05/23 13:33:49;;;;;;;2.38;1.10;;;23.00;6.40;;;;;;5027038;28;20064;-71
2022/05/23 13:36:14;;;;;;;2.30;1.17;;;22.90;5.60;;;;;;5057132;28;20033;-71
2022/05/23 13:38:43;;;;;;;3.50;1.10;;;23.00;6.30;;;;;;5041442;28;20513;-70
2022/05/23 13:41:28;;;;;;;1.02;0.70;;;23.10;6.00;;;;;;5047643;28;20040;-68
2022/05/23 13:43:54;;;;;;;1.77;0.90;;;23.40;6.50;;;;;;5027281;28;20374;-71
2022/05/23 13:46:37;;;;;;;0.70;0.70;;;23.30;6.30;;;;;;5055718;28;20035;-71
2022/05/23 13:49:07;;;;;;;1.55;1.00;;;23.40;5.70;;;;;;5033327;28;20029;-71
2022/05/23 13:51:36;;;;;;;1.40;0.90;;;23.30;6.40;;;;;;5042983;28;20026;-70
2022/05/23 13:54:04;;;;;;;3.15;1.10;;;23.20;7.20;;;;;;5038970;28;20497;-70
2022/05/23 13:56:30;;;;;;;1.20;0.90;;;23.20;7.20;;;;;;5048868;28;20036;-71
2022/05/23 13:59:01;;;;;;;2.97;1.35;;;23.10;6.50;;;;;;5055440;28;20040;-71
2022/05/23 14:01:33;;;;;;;2.75;1.00;;;23.10;7.20;;;;;;5041097;28;20027;-70
2022/05/23 14:04:04;;;;;;;2.88;1.20;;;23.10;7.10;;;;;;5054642;28;20040;-70
2022/05/23 14:06:36;;;;;;;2.35;1.08;;;23.00;7.30;;;;;;5034746;28;20029;-70
2022/05/23 14:09:04;;;;;;;2.80;1.35;;;23.20;7.50;;;;;;5032939;28;20438;-68
2022/05/23 14:11:34;;;;;;;1.23;1.13;;;23.10;8.10;;;;;;5038728;28;20037;-69
2022/05/23 14:14:19;;;;;;;2.72;1.52;;;23.20;8.20;;;;;;5029798;28;20029;-71
2022/05/23 14:16:57;;;;;;;3.28;1.50;;;23.30;8.40;;;;;;5048757;28;20099;-71
2022/05/23 14:19:27;;;;;;;2.55;0.98;;;23.40;8.00;;;;;;5046529;28;20060;-71
2022/05/23 14:22:11;;;;;;;1.98;1.20;;;23.30;8.60;;;;;;5052960;28;20759;-72
2022/05/23 14:24:40;;;;;;;1.40;1.17;;;23.30;8.00;;;;;;5062222;28;20522;-71
2022/05/23 14:27:32;;;;;;;1.27;1.00;;;23.30;8.10;;;;;;5053944;28;20033;-71
2022/05/23 14:30:17;;;;;;;1.77;1.17;;;23.30;9.20;;;;;;5042522;28;20033;-70
2022/05/23 14:33:03;;;;;;;1.52;1.02;;;23.30;7.80;;;;;;5053495;28;20056;-69
2022/05/23 14:35:34;;;;;;;;;;;23.20;8.00;;;;;;5036061;28;20037;-70
2022/05/23 14:38:01;;;;;;;5.10;1.35;;;22.90;8.50;;;;;;5039442;28;20007;-71
2022/05/23 14:40:38;;;;;;;3.47;1.38;;;22.50;9.00;;;;;;5050182;28;20500;-69
2022/05/23 14:43:08;;;;;;;2.10;1.30;;;22.40;9.90;;;;;;5034780;28;20032;-69
2022/05/23 14:45:34;;;;;;;1.42;1.10;;;22.40;9.70;;;;;;5035234;28;20365;-73
2022/05/23 14:48:07;;;;;;;2.55;1.50;;;22.40;9.80;;;;;;5037883;28;20100;-69
2022/05/23 14:50:41;;;;;;;1.27;0.85;;;22.20;10.00;;;;;;5025409;28;20132;-69
2022/05/23 14:55:54;;;;;;;1.90;1.25;;;22.30;10.30;;;;;;5033864;28;20036;-68
2022/05/23 15:01:19;;;;;;;3.63;1.42;;;22.20;10.60;;;;;;5037717;28;20048;-68
2022/05/23 15:03:48;;;;;;;2.80;1.20;;;22.20;9.90;;;;;;5036688;28;20033;-68
2022/05/23 15:06:15;;;;;;;4.93;1.30;;;22.20;10.10;;;;;;5056602;28;20584;-69
2022/05/23 15:08:42;;;;;;;2.15;1.45;;;22.10;9.90;;;;;;5032112;28;20068;-69
2022/05/23 15:11:13;;;;;;;2.08;1.05;;;22.10;9.90;;;;;;5055829;28;20438;-75
2022/05/23 15:13:39;;;;;;;2.22;1.25;;;22.10;10.40;;;;;;5031135;28;20109;-77
2022/05/23 15:16:05;;;;;;;2.90;1.20;;;22.20;9.90;;;;;;5051918;28;20124;-77